createdAt,value
2017-08-14T00:00:37.485Z,12.50
2017-08-14T00:03:03.518Z,21.90
2017-08-14T00:05:29.554Z,15.10
2017-08-14T00:07:56.326Z,8.70
2017-08-14T00:10:22.369Z,10.00
2017-08-14T00:12:48.411Z,15.07
2017-08-14T00:15:14.446Z,25.10
2017-08-14T00:17:40.480Z,8.83
2017-08-14T00:20:06.501Z,13.47
2017-08-14T00:22:32.525Z,18.20
2017-08-14T00:24:58.545Z,22.23
2017-08-14T00:27:24.661Z,15.23
2017-08-14T00:29:51.418Z,10.83
2017-08-14T00:32:17.453Z,23.43
2017-08-14T00:34:43.494Z,12.13
2017-08-14T00:37:10.277Z,17.73
2017-08-14T00:39:36.317Z,11.37
2017-08-14T00:42:02.349Z,9.77
2017-08-14T00:44:28.407Z,12.17
2017-08-14T00:46:54.430Z,12.43
2017-08-14T00:49:20.474Z,13.90
2017-08-14T00:51:46.538Z,10.70
2017-08-14T00:54:12.585Z,17.17
2017-08-14T00:56:38.646Z,17.00
2017-08-14T00:59:04.688Z,15.33
2017-08-14T01:01:31.470Z,15.40
2017-08-14T01:03:57.514Z,9.53
2017-08-14T01:06:23.532Z,15.00
2017-08-14T01:08:49.557Z,19.33
2017-08-14T01:11:16.317Z,15.07
2017-08-14T01:13:42.384Z,9.47
2017-08-14T01:16:09.153Z,13.53
2017-08-14T01:18:35.193Z,10.57
2017-08-14T01:21:01.220Z,12.83
2017-08-14T01:23:27.237Z,21.87
2017-08-14T01:25:53.253Z,10.70
2017-08-14T01:28:20.021Z,11.07
2017-08-14T01:30:46.056Z,14.43
2017-08-14T01:33:12.085Z,18.27
2017-08-14T01:35:38.862Z,15.03
2017-08-14T01:38:04.914Z,14.57
2017-08-14T01:40:30.937Z,14.20
2017-08-14T01:42:57.718Z,13.13
2017-08-14T01:45:23.742Z,13.67
2017-08-14T01:47:49.780Z,25.60
2017-08-14T01:50:15.809Z,10.40
2017-08-14T01:52:41.843Z,15.03
2017-08-14T01:55:07.879Z,26.67
2017-08-14T01:57:33.922Z,15.50
2017-08-14T01:59:59.946Z,19.27
2017-08-14T02:02:25.990Z,16.80
2017-08-14T02:04:52.081Z,30.37
2017-08-14T02:07:18.117Z,16.07
2017-08-14T02:09:44.144Z,12.50
2017-08-14T02:12:10.925Z,13.93
2017-08-14T02:14:36.957Z,20.33
2017-08-14T02:17:02.985Z,14.43
2017-08-14T02:19:29.028Z,17.07
2017-08-14T02:21:55.057Z,15.53
2017-08-14T02:24:21.098Z,17.03
2017-08-14T02:26:47.125Z,16.43
2017-08-14T02:29:13.905Z,15.63
2017-08-14T02:31:39.913Z,16.53
2017-08-14T02:34:05.941Z,16.87
2017-08-14T02:36:31.964Z,22.83
2017-08-14T02:38:57.985Z,19.60
2017-08-14T02:41:24.009Z,13.43
2017-08-14T02:43:50.774Z,21.60
2017-08-14T02:46:16.812Z,10.67
2017-08-14T02:48:43.617Z,17.53
2017-08-14T02:51:09.670Z,17.93
2017-08-14T02:53:36.472Z,17.60
2017-08-14T02:56:02.538Z,16.13
2017-08-14T02:58:28.564Z,19.97
2017-08-14T03:00:54.606Z,17.27
2017-08-14T03:03:21.385Z,17.83
2017-08-14T03:05:47.429Z,14.20
2017-08-14T03:08:13.469Z,13.60
2017-08-14T03:10:39.503Z,21.60
2017-08-14T03:13:05.561Z,12.47
2017-08-14T03:15:31.598Z,17.40
2017-08-14T03:17:57.645Z,16.93
2017-08-14T03:20:23.692Z,15.50
2017-08-14T03:22:49.727Z,14.20
2017-08-14T03:25:15.756Z,24.37
2017-08-14T03:27:41.813Z,11.83
2017-08-14T03:30:07.850Z,20.37
2017-08-14T03:32:34.609Z,13.00
2017-08-14T03:35:00.652Z,21.40
2017-08-14T03:37:26.694Z,16.73
2017-08-14T03:39:53.481Z,15.30
2017-08-14T03:42:19.517Z,17.43
2017-08-14T03:44:46.293Z,20.80
2017-08-14T03:47:12.327Z,13.63
2017-08-14T03:49:38.368Z,10.77
2017-08-14T03:52:04.411Z,22.47
2017-08-14T03:54:30.438Z,11.03
2017-08-14T03:56:56.465Z,14.63
2017-08-14T03:59:22.476Z,17.20
2017-08-14T04:01:48.501Z,12.33
2017-08-14T04:04:15.282Z,14.00
2017-08-14T04:06:41.305Z,12.50
2017-08-14T04:09:07.338Z,18.50
2017-08-14T04:11:34.114Z,18.87
2017-08-14T04:14:00.145Z,13.33
2017-08-14T04:16:26.173Z,14.40
2017-08-14T04:18:52.225Z,45.07
2017-08-14T04:21:18.324Z,24.70
2017-08-14T04:23:44.344Z,16.37
2017-08-14T04:26:10.388Z,16.83
2017-08-14T04:28:36.408Z,17.03
2017-08-14T04:31:02.436Z,17.80
2017-08-14T04:33:28.452Z,19.60
2017-08-14T04:35:54.471Z,19.27
2017-08-14T04:38:21.236Z,19.13
2017-08-14T04:40:47.254Z,12.80
2017-08-14T04:43:13.274Z,20.67
2017-08-14T04:45:39.300Z,14.87
2017-08-14T04:48:05.337Z,20.47
2017-08-14T04:50:31.378Z,14.60
2017-08-14T04:52:57.404Z,19.97
2017-08-14T04:55:23.429Z,16.93
2017-08-14T04:57:49.451Z,17.90
2017-08-14T05:00:15.469Z,13.57
2017-08-14T05:02:42.233Z,14.50
2017-08-14T05:05:08.256Z,17.97
2017-08-14T05:07:34.280Z,18.70
2017-08-14T05:10:00.312Z,19.03
2017-08-14T05:12:27.081Z,17.53
2017-08-14T05:14:53.121Z,15.93
2017-08-14T05:17:19.166Z,21.30
2017-08-14T05:19:45.930Z,16.43
2017-08-14T05:22:11.946Z,20.50
2017-08-14T05:24:37.964Z,9.67
2017-08-14T05:27:03.980Z,14.70
2017-08-14T05:29:29.992Z,13.33
2017-08-14T05:31:56.015Z,14.93
2017-08-14T05:34:22.043Z,9.83
2017-08-14T05:36:48.081Z,13.20
2017-08-14T05:39:14.109Z,14.70
2017-08-14T05:41:40.132Z,12.73
2017-08-14T05:44:06.146Z,15.33
2017-08-14T05:46:32.180Z,17.50
2017-08-14T05:48:58.225Z,12.60
2017-08-14T05:51:24.261Z,10.87
2017-08-14T05:53:50.306Z,11.83
2017-08-14T05:56:17.344Z,12.27
2017-08-14T05:58:44.093Z,14.87
2017-08-14T06:01:10.130Z,10.70
2017-08-14T06:03:36.189Z,16.30
2017-08-14T06:06:02.618Z,15.50
2017-08-14T06:08:28.673Z,14.73
2017-08-14T06:10:54.682Z,20.13
2017-08-14T06:13:20.707Z,19.10
2017-08-14T06:15:46.733Z,12.70
2017-08-14T06:18:13.497Z,18.83
2017-08-14T06:20:39.547Z,13.67
2017-08-14T06:23:05.609Z,12.53
2017-08-14T06:25:31.692Z,12.07
2017-08-14T06:27:58.468Z,10.60
2017-08-14T06:30:24.510Z,10.57
2017-08-14T06:32:51.276Z,12.83
2017-08-14T06:35:24.405Z,14.80
2017-08-14T06:37:51.169Z,11.57
2017-08-14T06:40:17.189Z,10.83
2017-08-14T06:42:43.201Z,14.73
2017-08-14T06:45:09.221Z,16.67
2017-08-14T06:47:35.275Z,10.53
2017-08-14T06:50:02.058Z,10.10
2017-08-14T06:52:28.833Z,7.57
2017-08-14T06:54:55.660Z,17.33
2017-08-14T06:57:21.698Z,9.17
2017-08-14T06:59:47.765Z,9.50
2017-08-14T07:02:13.797Z,11.13
2017-08-14T07:04:39.818Z,14.53
2017-08-14T07:07:06.026Z,7.97
2017-08-14T07:09:32.076Z,16.63
2017-08-14T07:11:58.230Z,9.93
2017-08-14T07:14:24.982Z,13.00
2017-08-14T07:16:51.016Z,9.03
2017-08-14T07:19:17.030Z,23.00
2017-08-14T07:21:43.064Z,13.60
2017-08-14T07:24:09.116Z,11.30
2017-08-14T07:26:35.165Z,13.03
2017-08-14T07:29:01.189Z,7.13
2017-08-14T07:31:27.208Z,10.37
2017-08-14T07:33:53.981Z,7.43
2017-08-14T07:36:20.006Z,7.47
2017-08-14T07:38:46.036Z,6.50
2017-08-14T07:41:12.093Z,8.30
2017-08-14T07:43:38.146Z,5.80
2017-08-14T07:46:04.940Z,6.93
2017-08-14T07:48:30.997Z,5.70
2017-08-14T07:50:57.762Z,11.70
2017-08-14T07:53:23.809Z,10.40
2017-08-14T07:55:49.859Z,7.10
2017-08-14T07:58:15.892Z,5.43
2017-08-14T08:00:41.914Z,11.03
2017-08-14T08:03:07.969Z,17.13
2017-08-14T08:05:33.993Z,4.73
2017-08-14T08:08:00.761Z,9.13
2017-08-14T08:10:26.809Z,6.00
2017-08-14T08:12:53.581Z,4.17
2017-08-14T08:15:19.636Z,9.70
2017-08-14T08:17:45.657Z,12.53
2017-08-14T08:20:11.681Z,5.10
2017-08-14T08:22:37.717Z,4.83
2017-08-14T08:25:03.772Z,6.40
2017-08-14T08:27:29.816Z,4.93
2017-08-14T08:29:55.873Z,9.27
2017-08-14T08:32:21.917Z,10.43
2017-08-14T08:34:47.962Z,6.60
2017-08-14T08:37:14.009Z,6.80
2017-08-14T08:39:40.804Z,7.07
2017-08-14T08:42:06.852Z,7.60
2017-08-14T08:44:32.896Z,11.53
2017-08-14T08:46:58.949Z,8.63
2017-08-14T08:49:25.003Z,7.43
2017-08-14T08:51:51.930Z,8.63
2017-08-14T08:54:18.069Z,7.20
2017-08-14T08:56:44.122Z,15.43
2017-08-14T08:59:10.269Z,12.17
2017-08-14T09:01:36.301Z,2.93
2017-08-14T09:04:02.333Z,5.03
2017-08-14T09:06:29.219Z,5.93
2017-08-14T09:08:55.269Z,9.60
2017-08-14T09:11:21.303Z,7.63
2017-08-14T09:13:47.384Z,6.63
2017-08-14T09:16:13.417Z,10.43
2017-08-14T09:18:39.475Z,8.30
2017-08-14T09:21:05.526Z,4.43
2017-08-14T09:23:31.573Z,4.10
2017-08-14T09:25:57.605Z,6.23
2017-08-14T09:28:23.637Z,6.13
2017-08-14T09:30:49.677Z,6.10
2017-08-14T09:33:15.709Z,22.70
2017-08-14T09:35:41.745Z,4.07
2017-08-14T09:38:07.780Z,4.13
2017-08-14T09:40:33.837Z,5.83
2017-08-14T09:42:59.877Z,3.17
2017-08-14T09:45:25.916Z,8.77
2017-08-14T09:47:51.959Z,5.33
2017-08-14T09:50:18.011Z,5.93
2017-08-14T09:52:44.036Z,7.27
2017-08-14T09:55:10.092Z,4.17
2017-08-14T09:57:36.137Z,2.93
2017-08-14T10:00:02.282Z,7.53
2017-08-14T10:02:28.326Z,6.30
2017-08-14T10:04:54.387Z,1.63
2017-08-14T10:07:20.433Z,5.13
2017-08-14T10:09:47.176Z,3.23
2017-08-14T10:12:13.253Z,3.60
2017-08-14T10:14:39.261Z,3.37
2017-08-14T10:17:06.038Z,2.20
2017-08-14T10:19:32.081Z,1.53
2017-08-14T10:21:58.129Z,5.20
2017-08-14T10:24:24.145Z,2.17
2017-08-14T10:26:50.177Z,2.20
2017-08-14T10:29:16.181Z,6.73
2017-08-14T10:31:42.198Z,3.90
2017-08-14T10:34:08.265Z,6.73
2017-08-14T10:36:34.306Z,3.30
2017-08-14T10:39:00.348Z,4.30
2017-08-14T10:41:26.385Z,6.17
2017-08-14T10:43:52.421Z,3.33
2017-08-14T10:46:18.448Z,6.33
2017-08-14T10:48:44.496Z,5.27
2017-08-14T10:51:11.300Z,2.03
2017-08-14T10:53:37.355Z,3.67
2017-08-14T10:56:03.566Z,2.20
2017-08-14T10:58:31.173Z,3.60
2017-08-14T11:00:57.208Z,3.90
2017-08-14T11:03:23.265Z,4.00
2017-08-14T11:05:49.306Z,1.43
2017-08-14T11:08:15.392Z,0.87
2017-08-14T11:10:42.608Z,3.10
2017-08-14T11:13:09.061Z,4.03
2017-08-14T11:15:35.309Z,3.60
2017-08-14T11:18:01.330Z,5.07
2017-08-14T11:20:27.409Z,3.00
2017-08-14T11:22:53.437Z,5.60
2017-08-14T11:25:19.481Z,3.90
2017-08-14T11:27:45.518Z,4.00
2017-08-14T11:30:11.548Z,5.20
2017-08-14T11:32:38.321Z,3.70
2017-08-14T11:35:04.401Z,6.00
2017-08-14T11:37:30.457Z,4.87
2017-08-14T11:39:56.469Z,4.97
2017-08-14T11:42:22.490Z,6.03
2017-08-14T11:44:48.512Z,3.40
2017-08-14T11:47:15.293Z,3.20
2017-08-14T11:49:41.325Z,3.27
2017-08-14T11:52:07.384Z,3.50
2017-08-14T11:54:33.427Z,1.20
2017-08-14T11:56:59.453Z,0.93
2017-08-14T11:59:25.481Z,3.00
2017-08-14T12:01:52.257Z,1.20
2017-08-14T12:04:18.290Z,1.73
2017-08-14T12:06:45.097Z,2.87
2017-08-14T12:09:11.233Z,1.47
2017-08-14T12:11:37.269Z,4.30
2017-08-14T12:14:04.050Z,3.43
2017-08-14T12:16:30.085Z,4.93
2017-08-14T12:18:56.250Z,4.23
2017-08-14T12:21:22.273Z,4.80
2017-08-14T12:23:48.295Z,5.60
2017-08-14T12:26:14.325Z,5.27
2017-08-14T12:28:40.341Z,3.00
2017-08-14T12:31:07.137Z,2.93
2017-08-14T12:33:33.221Z,6.10
2017-08-14T12:35:59.246Z,2.10
2017-08-14T12:38:25.270Z,10.13
2017-08-14T12:40:51.334Z,4.37
2017-08-14T12:43:17.357Z,5.53
2017-08-14T12:45:43.377Z,4.07
2017-08-14T12:48:09.404Z,2.53
2017-08-14T12:50:35.472Z,2.03
2017-08-14T12:53:01.513Z,3.90
2017-08-14T12:55:27.545Z,3.37
2017-08-14T12:57:53.587Z,5.97
2017-08-14T13:00:19.640Z,3.23
2017-08-14T13:02:45.716Z,4.10
2017-08-14T13:05:11.802Z,6.80
2017-08-14T13:07:38.591Z,3.80
2017-08-14T13:10:04.645Z,3.20
2017-08-14T13:12:31.465Z,9.13
2017-08-14T13:14:57.473Z,5.20
2017-08-14T13:17:23.561Z,2.93
2017-08-14T13:19:49.588Z,4.00
2017-08-14T13:22:16.353Z,8.00
2017-08-14T13:24:42.372Z,3.00
2017-08-14T13:27:08.401Z,3.23
2017-08-14T13:29:34.453Z,3.90
2017-08-14T13:32:00.501Z,5.60
2017-08-14T13:34:26.514Z,2.07
2017-08-14T13:36:52.544Z,2.33
2017-08-14T13:39:18.569Z,3.10
2017-08-14T13:41:44.617Z,5.83
2017-08-14T13:44:10.672Z,4.50
2017-08-14T13:46:36.697Z,5.40
2017-08-14T13:49:02.772Z,10.70
2017-08-14T13:51:28.801Z,4.13
2017-08-14T13:53:54.822Z,2.70
2017-08-14T13:56:21.601Z,3.17
2017-08-14T13:58:47.641Z,3.33
2017-08-14T14:01:13.705Z,2.97
2017-08-14T14:03:39.737Z,6.93
2017-08-14T14:06:05.857Z,4.20
2017-08-14T14:08:31.926Z,6.60
2017-08-14T14:10:57.977Z,2.30
2017-08-14T14:13:24.037Z,8.00
2017-08-14T14:15:50.075Z,2.70
2017-08-14T14:18:16.116Z,3.60
2017-08-14T14:20:42.161Z,5.67
2017-08-14T14:23:08.193Z,2.77
2017-08-14T14:25:34.206Z,3.17
2017-08-14T14:28:00.273Z,5.30
2017-08-14T14:30:26.296Z,4.57
2017-08-14T14:32:52.348Z,3.50
2017-08-14T14:35:18.390Z,3.17
2017-08-14T14:37:45.193Z,2.63
2017-08-14T14:40:11.252Z,3.63
2017-08-14T14:42:37.306Z,2.63
2017-08-14T14:45:03.361Z,3.73
2017-08-14T14:47:29.431Z,8.37
2017-08-14T14:49:55.469Z,2.77
2017-08-14T14:52:21.534Z,8.77
2017-08-14T14:54:47.600Z,5.27
2017-08-14T14:57:13.628Z,2.70
2017-08-14T14:59:39.668Z,5.90
2017-08-14T15:02:05.729Z,2.30
2017-08-14T15:04:31.758Z,3.10
2017-08-14T15:06:57.813Z,2.73
2017-08-14T15:09:23.841Z,4.50
2017-08-14T15:11:49.884Z,2.63
2017-08-14T15:14:15.903Z,4.47
2017-08-14T15:16:41.933Z,7.70
2017-08-14T15:19:07.948Z,6.40
2017-08-14T15:21:33.981Z,2.57
2017-08-14T15:24:00.760Z,3.37
2017-08-14T15:26:26.800Z,6.23
2017-08-14T15:28:52.842Z,5.47
2017-08-14T15:31:19.596Z,5.03
2017-08-14T15:33:45.629Z,2.43
2017-08-14T15:36:11.641Z,7.17
2017-08-14T15:38:37.665Z,3.07
2017-08-14T15:41:03.687Z,4.30
2017-08-14T15:43:30.487Z,4.23
2017-08-14T15:45:56.533Z,1.73
2017-08-14T15:48:23.303Z,4.60
2017-08-14T15:50:49.349Z,3.50
2017-08-14T15:53:16.134Z,4.63
2017-08-14T15:55:42.161Z,6.23
2017-08-14T15:58:08.234Z,3.80
2017-08-14T16:00:34.329Z,2.77
2017-08-14T16:03:00.367Z,2.47
2017-08-14T16:05:26.405Z,10.43
2017-08-14T16:07:52.452Z,5.50
2017-08-14T16:10:19.233Z,5.40
2017-08-14T16:12:45.260Z,4.77
2017-08-14T16:15:12.044Z,3.60
2017-08-14T16:17:38.076Z,3.50
2017-08-14T16:20:04.097Z,5.43
2017-08-14T16:22:30.875Z,3.50
2017-08-14T16:24:56.893Z,4.20
2017-08-14T16:27:22.932Z,5.17
2017-08-14T16:29:48.955Z,12.83
2017-08-14T16:32:14.979Z,4.30
2017-08-14T16:34:41.742Z,3.70
2017-08-14T16:37:07.782Z,11.87
2017-08-14T16:39:33.796Z,5.50
2017-08-14T16:41:59.833Z,4.83
2017-08-14T16:44:25.869Z,5.73
2017-08-14T16:46:51.905Z,4.93
2017-08-14T16:49:17.940Z,6.70
2017-08-14T16:51:44.745Z,5.57
2017-08-14T16:54:10.845Z,10.30
2017-08-14T16:56:36.908Z,4.87
2017-08-14T16:59:02.957Z,8.77
2017-08-14T17:01:29.007Z,4.63
2017-08-14T17:03:55.061Z,6.87
2017-08-14T17:06:21.081Z,6.00
2017-08-14T17:08:47.125Z,4.77
2017-08-14T17:11:13.152Z,5.03
2017-08-14T17:13:39.941Z,8.03
2017-08-14T17:16:05.979Z,9.00
2017-08-14T17:18:33.660Z,5.10
2017-08-14T17:20:59.721Z,8.20
2017-08-14T17:23:25.841Z,4.43
2017-08-14T17:25:52.618Z,8.60
2017-08-14T17:28:18.643Z,7.27
2017-08-14T17:30:44.691Z,5.30
2017-08-14T17:33:11.466Z,8.13
2017-08-14T17:35:37.517Z,10.13
2017-08-14T17:38:03.553Z,10.30
2017-08-14T17:40:29.588Z,5.53
2017-08-14T17:42:55.624Z,7.47
2017-08-14T17:45:21.677Z,6.03
2017-08-14T17:47:48.441Z,7.10
2017-08-14T17:50:14.493Z,8.77
2017-08-14T17:52:41.291Z,5.00
2017-08-14T17:55:07.350Z,7.73
2017-08-14T17:57:33.402Z,8.60
2017-08-14T17:59:59.457Z,9.70
2017-08-14T18:02:26.221Z,7.27
2017-08-14T18:04:52.262Z,7.23
2017-08-14T18:07:18.292Z,12.83
2017-08-14T18:09:45.075Z,11.10
2017-08-14T18:12:11.120Z,7.57
2017-08-14T18:14:37.893Z,11.13
2017-08-14T18:17:03.933Z,10.97
2017-08-14T18:19:29.965Z,7.60
2017-08-14T18:21:56.765Z,7.50
2017-08-14T18:24:22.804Z,9.33
2017-08-14T18:26:49.589Z,24.83
2017-08-14T18:29:15.633Z,8.47
2017-08-14T18:31:42.410Z,19.40
2017-08-14T18:34:08.445Z,14.40
2017-08-14T18:36:34.481Z,19.00
2017-08-14T18:39:01.269Z,29.90
2017-08-14T18:41:27.324Z,21.17
2017-08-14T18:43:53.377Z,10.23
2017-08-14T18:46:19.430Z,10.50
2017-08-14T18:48:46.225Z,5.83
2017-08-14T18:51:12.337Z,7.03
2017-08-14T18:53:38.409Z,8.37
2017-08-14T18:56:04.489Z,6.50
2017-08-14T18:58:31.405Z,10.03
2017-08-14T19:00:57.434Z,10.90
2017-08-14T19:03:24.457Z,11.83
2017-08-14T19:05:51.246Z,7.47
2017-08-14T19:08:19.263Z,11.67
2017-08-14T19:10:43.377Z,12.50
2017-08-14T19:13:09.416Z,7.77
2017-08-14T19:15:36.205Z,5.67
2017-08-14T19:18:02.268Z,9.50
2017-08-14T19:20:28.394Z,17.57
2017-08-14T19:22:54.450Z,12.03
2017-08-14T19:25:20.485Z,12.30
2017-08-14T19:27:47.265Z,6.80
2017-08-14T19:30:13.320Z,14.53
2017-08-14T19:32:40.749Z,6.93
2017-08-14T19:35:08.632Z,7.00
2017-08-14T19:37:35.034Z,6.03
2017-08-14T19:40:01.716Z,9.23
2017-08-14T19:42:27.757Z,8.30
2017-08-14T19:44:53.778Z,12.20
2017-08-14T19:47:20.565Z,16.53
2017-08-14T19:49:46.610Z,13.90
2017-08-14T19:52:13.409Z,10.23
2017-08-14T19:54:39.454Z,9.27
2017-08-14T19:57:05.489Z,8.80
2017-08-14T19:59:31.534Z,13.70
2017-08-14T20:01:57.578Z,15.80
2017-08-14T20:04:23.621Z,8.13
2017-08-14T20:06:49.671Z,9.50
2017-08-14T20:09:15.705Z,12.50
2017-08-14T20:11:41.738Z,7.60
2017-08-14T20:14:07.783Z,20.47
2017-08-14T20:16:33.845Z,10.43
2017-08-14T20:18:59.894Z,13.43
2017-08-14T20:21:25.937Z,8.80
2017-08-14T20:23:52.724Z,8.77
2017-08-14T20:26:18.777Z,6.90
2017-08-14T20:28:45.032Z,11.43
2017-08-14T20:31:11.892Z,9.20
2017-08-14T20:33:37.916Z,10.60
2017-08-14T20:36:03.970Z,7.47
2017-08-14T20:38:30.047Z,11.50
2017-08-14T20:40:56.097Z,8.03
2017-08-14T20:43:22.125Z,12.67
2017-08-14T20:45:48.167Z,7.70
2017-08-14T20:48:14.933Z,8.57
2017-08-14T20:50:40.981Z,13.40
2017-08-14T20:53:07.009Z,16.63
2017-08-14T20:55:33.053Z,9.83
2017-08-14T20:57:59.084Z,7.07
2017-08-14T21:00:25.138Z,10.90
2017-08-14T21:02:51.921Z,10.37
2017-08-14T21:05:17.958Z,12.43
2017-08-14T21:07:46.301Z,6.87
2017-08-14T21:10:12.451Z,8.73
2017-08-14T21:12:38.501Z,7.93
2017-08-14T21:15:04.529Z,7.30
2017-08-14T21:17:30.556Z,8.20
2017-08-14T21:19:56.587Z,8.50
2017-08-14T21:22:22.638Z,7.60
2017-08-14T21:24:48.707Z,8.10
2017-08-14T21:27:15.488Z,8.23
2017-08-14T21:29:41.541Z,12.63
2017-08-14T21:32:07.583Z,10.03
2017-08-14T21:34:33.628Z,10.00
2017-08-14T21:36:59.665Z,15.60
2017-08-14T21:39:25.724Z,14.07
2017-08-14T21:41:51.762Z,9.37
2017-08-14T21:44:17.797Z,7.77
2017-08-14T21:46:43.838Z,12.23
2017-08-14T21:49:09.865Z,13.30
2017-08-14T21:51:35.913Z,9.70
2017-08-14T21:54:02.068Z,9.23
2017-08-14T21:56:28.097Z,8.70
2017-08-14T21:58:54.132Z,13.00
2017-08-14T22:01:20.179Z,10.70
2017-08-14T22:03:46.236Z,10.30
2017-08-14T22:06:12.269Z,7.13
2017-08-14T22:08:39.041Z,7.00
2017-08-14T22:11:05.073Z,9.67
2017-08-14T22:13:31.123Z,9.47
2017-08-14T22:15:57.153Z,9.53
2017-08-14T22:18:23.182Z,8.80
2017-08-14T22:20:49.245Z,15.63
2017-08-14T22:23:16.009Z,15.60
2017-08-14T22:25:42.066Z,7.90
2017-08-14T22:28:08.137Z,9.40
2017-08-14T22:30:34.172Z,11.97
2017-08-14T22:33:00.197Z,13.27
2017-08-14T22:35:26.979Z,8.97
2017-08-14T22:37:52.997Z,12.60
2017-08-14T22:40:19.059Z,11.43
2017-08-14T22:42:45.073Z,13.83
2017-08-14T22:45:11.126Z,12.20
2017-08-14T22:47:37.160Z,7.90
2017-08-14T22:50:03.933Z,7.87
2017-08-14T22:52:29.970Z,9.53
2017-08-14T22:54:55.977Z,9.03
2017-08-14T22:57:22.009Z,15.30
2017-08-14T22:59:48.024Z,11.27
2017-08-14T23:02:14.782Z,8.30
2017-08-14T23:04:40.813Z,9.70
2017-08-14T23:07:06.841Z,14.77
2017-08-14T23:09:32.874Z,9.13
2017-08-14T23:11:58.921Z,7.70
2017-08-14T23:14:24.949Z,12.27
2017-08-14T23:16:50.961Z,10.33
2017-08-14T23:19:17.002Z,8.60
2017-08-14T23:21:43.773Z,8.47
2017-08-14T23:24:09.788Z,10.33
2017-08-14T23:26:35.814Z,12.47
2017-08-14T23:29:01.832Z,9.93
2017-08-14T23:31:27.841Z,14.30
2017-08-14T23:33:53.860Z,9.70
2017-08-14T23:36:19.873Z,11.97
2017-08-14T23:38:45.885Z,8.13
2017-08-14T23:41:12.645Z,10.63
2017-08-14T23:43:38.661Z,13.50
2017-08-14T23:46:04.696Z,8.23
2017-08-14T23:48:30.725Z,10.13
2017-08-14T23:50:56.773Z,13.30
2017-08-14T23:53:22.813Z,7.63
2017-08-14T23:55:48.837Z,8.87
2017-08-14T23:58:14.857Z,9.53
